Time;durP1;ratioP1;P1;durP2;ratioP2;P2;SDS_P1;SDS_P2;PMS_P1;PMS_P2;Temp;Humidity;BMP_temperature;BMP_pressure;BME280_temperature;BME280_humidity;BME280_pressure;Samples;Min_cycle;Max_cycle;Signal;HPM_P1;HPM_P2
2023/04/22 00:01:42;;;;;;;3.50;1.45;;;;;;;3.73;70.67;99261.19;5028565;28;20052;-59
2023/04/22 00:04:13;;;;;;;1.65;1.00;;;;;;;3.76;71.11;99260.31;5058569;28;20060;-59
2023/04/22 00:06:48;;;;;;;1.98;1.02;;;;;;;3.77;70.10;99262.91;5058889;28;20424;-57
2023/04/22 00:09:18;;;;;;;3.00;1.00;;;;;;;3.66;70.04;99262.94;5065928;28;20048;-57
2023/04/22 00:11:49;;;;;;;4.07;1.20;;;;;;;3.53;70.15;99274.19;5079110;28;20078;-59
2023/04/22 00:14:19;;;;;;;6.25;1.20;;;;;;;3.56;70.42;99284.50;5070186;28;20053;-58
2023/04/22 00:16:50;;;;;;;3.10;1.05;;;;;;;3.44;70.06;99275.09;5060325;28;20060;-57
2023/04/22 00:19:20;;;;;;;2.35;1.17;;;;;;;3.40;72.25;99299.19;5068138;28;20451;-58
2023/04/22 00:21:53;;;;;;;1.65;1.13;;;;;;;3.20;75.93;99308.72;5068947;28;20139;-58
2023/04/22 00:24:23;;;;;;;1.30;1.00;;;;;;;3.05;75.50;99311.34;5061484;28;20075;-58
2023/04/22 00:26:54;;;;;;;2.72;1.10;;;;;;;2.99;75.27;99307.88;5061479;28;20144;-59
2023/04/22 00:29:25;;;;;;;1.35;0.95;;;;;;;2.97;76.88;99314.78;5061054;28;20109;-56
2023/04/22 00:31:56;;;;;;;2.83;1.00;;;;;;;2.98;77.56;99321.66;4913828;28;20048;-59
2023/04/22 00:34:26;;;;;;;2.22;1.17;;;;;;;2.84;80.90;99333.69;4911565;28;20443;-58
2023/04/22 00:36:59;;;;;;;3.78;1.30;;;;;;;2.75;82.25;99336.28;4913479;28;20049;-56
2023/04/22 00:39:31;;;;;;;1.98;1.23;;;;;;;2.78;82.22;99344.00;4919834;28;20048;-58
2023/04/22 00:42:02;;;;;;;2.17;1.20;;;;;;;2.86;83.95;99339.72;4921711;28;20058;-58
2023/04/22 00:44:33;;;;;;;3.30;1.38;;;;;;;2.85;83.35;99324.25;4910655;28;20049;-60
2023/04/22 00:47:05;;;;;;;1.52;0.80;;;;;;;2.93;84.29;99338.84;4911082;28;20058;-58
2023/04/22 00:49:36;;;;;;;1.58;1.27;;;;;;;3.19;86.54;99345.69;4922235;28;20059;-58
2023/04/22 00:52:09;;;;;;;2.25;1.33;;;;;;;3.34;82.79;99348.25;4922476;28;20477;-56
2023/04/22 00:54:40;;;;;;;2.55;1.13;;;;;;;3.38;82.60;99352.56;4939998;28;20447;-58
2023/04/22 00:57:10;;;;;;;4.65;1.30;;;;;;;3.55;80.06;99337.03;4931000;28;20498;-57
2023/04/22 00:59:41;;;;;;;2.55;1.30;;;;;;;3.67;80.54;99336.16;4930398;28;20044;-57
2023/04/22 01:02:13;;;;;;;3.13;1.45;;;;;;;3.78;79.59;99342.13;4925452;28;20052;-55
2023/04/22 01:04:52;;;;;;;2.40;1.15;;;;;;;3.85;76.67;99343.81;4933496;28;20513;-57
2023/04/22 01:07:25;;;;;;;1.10;1.00;;;;;;;3.91;76.60;99352.41;4923233;28;20050;-58
2023/04/22 01:09:55;;;;;;;2.70;1.20;;;;;;;3.93;76.48;99361.88;4920810;28;20063;-57
2023/04/22 01:12:26;;;;;;;2.25;1.02;;;;;;;3.91;73.35;99352.41;4929001;28;20063;-59
2023/04/22 01:14:56;;;;;;;1.80;0.88;;;;;;;3.86;72.86;99350.69;4911438;28;20044;-58
2023/04/22 01:17:27;;;;;;;2.03;1.20;;;;;;;3.95;74.32;99364.47;4928475;28;20056;-57
2023/04/22 01:19:58;;;;;;;1.63;1.10;;;;;;;4.20;72.23;99360.06;4933959;28;20416;-59
2023/04/22 01:22:36;;;;;;;0.95;0.82;;;;;;;4.19;69.05;99364.34;4923003;28;20045;-60
2023/04/22 01:25:10;;;;;;;1.17;0.80;;;;;;;4.24;70.62;99356.56;4928770;28;20058;-58
2023/04/22 01:27:43;;;;;;;1.35;0.90;;;;;;;4.28;70.99;99363.44;4913900;28;20046;-54
2023/04/22 01:30:14;;;;;;;3.13;1.05;;;;;;;4.52;70.61;99367.63;4929259;28;20043;-58
2023/04/22 01:32:45;;;;;;;2.35;0.80;;;;;;;4.64;69.44;99357.19;4928882;28;20058;-58
2023/04/22 01:35:15;;;;;;;1.38;0.70;;;;;;;4.61;67.61;99340.81;4933088;28;20466;-60
2023/04/22 01:37:46;;;;;;;3.85;0.98;;;;;;;4.43;66.29;99346.97;4931660;28;20434;-58
2023/04/22 01:40:21;;;;;;;1.08;0.90;;;;;;;4.66;67.53;99370.97;4909534;28;20102;-58
2023/04/22 01:42:52;;;;;;;1.67;1.10;;;;;;;4.76;64.32;99359.69;4902748;28;20059;-60
2023/04/22 01:45:22;;;;;;;1.00;0.90;;;;;;;4.88;66.31;99376.00;4911459;28;20067;-59
2023/04/22 01:47:53;;;;;;;2.47;0.93;;;;;;;4.90;64.27;99384.63;4910984;28;20372;-58
2023/04/22 01:50:26;;;;;;;0.90;0.77;;;;;;;4.72;64.71;99355.41;4909697;28;20048;-58
2023/04/22 01:52:57;;;;;;;1.08;0.80;;;;;;;4.96;64.30;99384.56;4907282;28;20048;-56
2023/04/22 01:55:30;;;;;;;1.27;0.68;;;;;;;4.98;65.64;99388.00;4908097;28;21963;-58
2023/04/22 01:58:00;;;;;;;1.15;0.90;;;;;;;5.01;64.13;99413.00;4910618;28;20063;-57
2023/04/22 02:00:31;;;;;;;1.77;1.08;;;;;;;4.90;65.46;99415.69;4907811;28;20148;-58
2023/04/22 02:03:05;;;;;;;1.20;0.80;;;;;;;4.70;64.96;99414.06;4889884;28;20083;-58
2023/04/22 02:05:36;;;;;;;1.10;0.80;;;;;;;4.68;64.92;99392.53;4907435;28;20467;-57
2023/04/22 02:08:09;;;;;;;2.38;0.98;;;;;;;4.74;65.72;99405.44;4897644;28;20078;-57
2023/04/22 02:10:42;;;;;;;1.95;0.70;;;;;;;4.80;65.14;99419.19;4922503;28;20044;-58
2023/04/22 02:13:12;;;;;;;2.78;0.90;;;;;;;4.78;66.26;99431.28;4924159;28;20052;-57
2023/04/22 02:15:43;;;;;;;2.05;0.90;;;;;;;4.81;66.27;99441.63;4928815;28;20058;-58
2023/04/22 02:18:13;;;;;;;2.22;1.00;;;;;;;4.57;67.04;99422.78;4912879;28;20059;-60
2023/04/22 02:20:44;;;;;;;1.42;0.80;;;;;;;4.54;67.42;99453.81;4926875;28;20052;-58
2023/04/22 02:23:15;;;;;;;1.83;0.98;;;;;;;4.39;68.42;99446.16;4914592;28;20495;-57
2023/04/22 02:25:51;;;;;;;1.20;0.90;;;;;;;4.18;68.48;99429.84;4909274;28;20257;-59
2023/04/22 02:28:22;;;;;;;1.95;1.08;;;;;;;3.61;69.02;99359.41;4901451;28;20052;-58
2023/04/22 02:30:53;;;;;;;2.45;1.00;;;;;;;3.99;70.85;99448.88;4923219;28;20040;-58
2023/04/22 02:33:23;;;;;;;1.63;0.95;;;;;;;3.98;71.88;99458.34;4925312;28;20135;-58
2023/04/22 02:35:54;;;;;;;1.85;1.10;;;;;;;4.01;72.35;99478.16;4927717;28;20546;-58
2023/04/22 02:38:25;;;;;;;1.60;1.10;;;;;;;3.94;74.74;99460.94;4927703;28;20044;-59
2023/04/22 02:40:57;;;;;;;3.10;1.20;;;;;;;3.96;72.52;99466.97;4924355;28;20044;-59
2023/04/22 02:43:28;;;;;;;1.63;1.00;;;;;;;4.09;73.58;99482.47;4903601;28;20108;-58
2023/04/22 02:45:59;;;;;;;2.33;1.10;;;;;;;4.10;73.10;99483.31;4910950;28;20129;-57
2023/04/22 02:48:29;;;;;;;1.23;0.95;;;;;;;3.99;72.41;99475.56;4927679;28;20066;-58
2023/04/22 02:51:00;;;;;;;2.47;1.10;;;;;;;3.94;72.55;99476.47;4921945;28;20040;-59
2023/04/22 02:53:30;;;;;;;1.20;0.90;;;;;;;3.65;72.05;99412.78;4905966;28;20075;-58
2023/04/22 02:56:03;;;;;;;1.60;0.90;;;;;;;4.23;71.42;99485.00;4906025;28;20075;-57
2023/04/22 02:58:33;;;;;;;3.00;1.00;;;;;;;4.31;69.57;99472.91;4906661;28;20044;-57
2023/04/22 03:01:06;;;;;;;2.90;0.98;;;;;;;4.45;66.04;99475.44;4907914;28;20049;-58
2023/04/22 03:03:37;;;;;;;2.10;0.98;;;;;;;4.54;68.19;99490.06;4912733;28;20064;-57
2023/04/22 03:06:08;;;;;;;2.17;1.00;;;;;;;4.53;68.52;99494.38;4923141;28;20060;-58
2023/04/22 03:08:38;;;;;;;1.70;0.93;;;;;;;4.62;69.53;99501.25;4931504;28;20057;-57
2023/04/22 03:11:12;;;;;;;3.92;0.98;;;;;;;4.71;66.16;99498.59;4921862;28;20055;-56
2023/04/22 03:13:43;;;;;;;3.30;1.08;;;;;;;4.73;66.02;99496.88;4912832;28;20055;-59
2023/04/22 03:16:13;;;;;;;1.25;0.93;;;;;;;4.88;66.09;99497.66;4924082;28;20041;-59
2023/04/22 03:18:44;;;;;;;2.63;1.08;;;;;;;4.91;65.41;99508.00;4916511;28;20048;-57
2023/04/22 03:21:15;;;;;;;2.65;0.98;;;;;;;4.91;64.93;99513.16;4918136;28;20067;-58
2023/04/22 03:23:46;;;;;;;2.72;0.93;;;;;;;4.86;65.28;99518.38;4911314;28;20045;-57
2023/04/22 03:26:18;;;;;;;2.45;0.88;;;;;;;4.73;65.56;99507.22;4907879;28;20049;-57
2023/04/22 03:28:51;;;;;;;4.28;1.00;;;;;;;4.78;65.15;99519.28;4909140;28;20052;-59
2023/04/22 03:31:24;;;;;;;2.72;1.10;;;;;;;4.83;64.42;99528.75;4906945;28;20544;-59
2023/04/22 03:33:56;;;;;;;2.97;1.10;;;;;;;4.90;64.48;99524.41;4931232;28;20466;-59
2023/04/22 03:36:29;;;;;;;2.50;1.10;;;;;;;4.94;64.41;99526.09;4932791;28;20523;-58
2023/04/22 03:39:00;;;;;;;1.85;0.98;;;;;;;5.08;63.39;99524.28;4933462;28;20381;-59
2023/04/22 03:41:32;;;;;;;1.95;1.10;;;;;;;5.15;62.67;99531.16;4932840;28;20056;-59
2023/04/22 03:44:03;;;;;;;3.58;1.30;;;;;;;5.22;62.38;99536.28;4930952;28;20052;-59
2023/04/22 03:46:34;;;;;;;1.55;1.10;;;;;;;5.16;60.89;99538.03;4933354;28;20062;-59
2023/04/22 03:49:05;;;;;;;4.18;1.10;;;;;;;5.14;61.39;99545.00;4931522;28;20566;-60
2023/04/22 03:51:36;;;;;;;3.95;1.70;;;;;;;5.16;62.49;99551.00;4931428;28;20044;-58
2023/04/22 03:54:07;;;;;;;2.35;1.05;;;;;;;5.22;61.13;99551.81;4934365;28;20052;-58
2023/04/22 03:56:39;;;;;;;1.88;1.00;;;;;;;5.27;62.47;99560.47;4930870;28;20063;-59
2023/04/22 03:59:10;;;;;;;1.80;1.20;;;;;;;5.29;61.23;99563.88;4932908;28;20055;-59
2023/04/22 04:01:40;;;;;;;4.47;1.70;;;;;;;5.29;61.50;99553.50;4933894;28;20063;-59
2023/04/22 04:04:11;;;;;;;2.35;1.40;;;;;;;5.41;62.79;99558.63;4933215;28;20051;-60
2023/04/22 04:06:42;;;;;;;3.10;1.10;;;;;;;5.54;60.14;99560.28;4930860;28;20051;-60
2023/04/22 04:09:12;;;;;;;2.67;1.30;;;;;;;5.65;60.00;99561.91;4936229;28;20426;-59
2023/04/22 04:11:44;;;;;;;3.15;1.00;;;;;;;5.77;60.56;99564.41;4935608;28;20048;-59
2023/04/22 04:14:15;;;;;;;2.30;1.10;;;;;;;5.91;60.16;99565.13;4935644;28;20582;-60
2023/04/22 04:16:46;;;;;;;2.33;1.30;;;;;;;5.86;59.16;99566.91;4935702;28;20056;-60
2023/04/22 04:19:16;;;;;;;2.55;1.00;;;;;;;5.24;59.53;99509.53;4935296;28;20514;-61
2023/04/22 04:21:47;;;;;;;3.55;1.27;;;;;;;5.32;61.33;99548.34;4934524;28;20048;-60
2023/04/22 04:24:17;;;;;;;2.33;1.20;;;;;;;5.45;62.14;99581.06;4933939;28;20114;-61
2023/04/22 04:26:50;;;;;;;4.25;1.10;;;;;;;5.44;61.08;99578.47;4940929;28;20052;-60
2023/04/22 04:29:20;;;;;;;6.82;1.10;;;;;;;5.47;60.32;99579.31;4936348;28;20142;-60
2023/04/22 04:31:51;;;;;;;4.47;1.23;;;;;;;5.44;60.85;99579.31;4935761;28;20050;-60
2023/04/22 04:34:22;;;;;;;3.00;1.23;;;;;;;5.46;61.62;99589.69;4935007;28;20360;-60
2023/04/22 04:36:53;;;;;;;4.00;1.70;;;;;;;5.32;60.59;99584.59;4936455;28;20500;-60
2023/04/22 04:39:25;;;;;;;3.63;1.65;;;;;;;5.48;61.67;99586.22;4935435;28;20142;-60
2023/04/22 04:41:57;;;;;;;5.57;1.88;;;;;;;5.67;61.07;99591.28;4935741;28;20048;-60
2023/04/22 04:44:30;;;;;;;1.98;1.20;;;;;;;5.61;60.73;99587.84;4932262;28;20120;-60
2023/04/22 04:47:01;;;;;;;1.63;1.02;;;;;;;5.53;59.46;99600.00;4936772;28;20047;-59
2023/04/22 04:49:38;;;;;;;2.08;1.35;;;;;;;5.43;60.38;99603.53;4936658;28;20062;-59
2023/04/22 04:52:11;;;;;;;4.47;1.63;;;;;;;5.40;61.36;99598.38;4926422;28;20044;-60
2023/04/22 04:54:41;;;;;;;3.95;1.58;;;;;;;5.53;60.42;99605.19;4933925;28;20047;-61
2023/04/22 04:57:14;;;;;;;5.35;1.60;;;;;;;5.41;59.75;99610.44;4934978;28;20378;-60
2023/04/22 04:59:44;;;;;;;2.15;1.30;;;;;;;5.42;59.71;99622.53;4934667;28;20494;-59
2023/04/22 05:02:15;;;;;;;2.65;1.35;;;;;;;5.40;60.33;99614.75;4935921;28;20071;-60
2023/04/22 05:04:46;;;;;;;2.63;1.27;;;;;;;5.36;59.44;99632.91;4934350;28;20479;-59
2023/04/22 05:07:17;;;;;;;5.05;1.42;;;;;;;5.32;59.60;99626.91;4926346;28;20652;-60
2023/04/22 05:09:48;;;;;;;3.92;1.20;;;;;;;5.34;58.88;99634.66;4919775;28;20050;-60
2023/04/22 05:12:20;;;;;;;3.00;1.00;;;;;;;5.38;60.14;99641.56;4911868;28;20057;-61
2023/04/22 05:14:51;;;;;;;3.00;1.25;;;;;;;5.42;59.23;99643.25;4913258;28;20053;-59
2023/04/22 05:17:21;;;;;;;2.88;1.13;;;;;;;5.43;57.69;99654.47;4915621;28;20051;-61
2023/04/22 05:19:52;;;;;;;2.83;1.23;;;;;;;5.46;58.72;99655.31;4910836;28;20475;-59
2023/04/22 05:22:23;;;;;;;5.22;1.38;;;;;;;5.46;57.99;99652.72;4913333;28;20048;-60
2023/04/22 05:24:53;;;;;;;1.92;1.00;;;;;;;5.59;58.44;99662.16;4943619;28;20047;-59
2023/04/22 05:27:26;;;;;;;2.20;1.20;;;;;;;5.65;58.28;99644.84;4944333;28;20088;-60
2023/04/22 05:29:56;;;;;;;2.80;1.27;;;;;;;5.69;59.28;99667.28;4943195;28;20043;-59
2023/04/22 05:32:27;;;;;;;7.38;1.70;;;;;;;5.79;60.60;99663.75;4943280;28;20651;-59
2023/04/22 05:34:58;;;;;;;3.28;1.27;;;;;;;5.84;59.24;99677.53;4939473;28;20558;-60
2023/04/22 05:37:28;;;;;;;4.45;1.40;;;;;;;5.84;59.33;99674.97;4946305;28;20053;-59
2023/04/22 05:39:59;;;;;;;4.15;1.08;;;;;;;5.93;58.69;99672.31;4943060;28;20059;-60
2023/04/22 05:42:31;;;;;;;5.78;1.20;;;;;;;5.99;58.69;99666.25;4943099;28;20050;-60
2023/04/22 05:45:02;;;;;;;5.45;1.27;;;;;;;6.10;56.77;99668.78;4944604;28;20043;-60
2023/04/22 05:47:33;;;;;;;1.17;0.98;;;;;;;6.25;56.26;99663.47;4928435;28;20051;-60
2023/04/22 05:50:04;;;;;;;2.88;1.10;;;;;;;6.26;55.63;99666.06;4928113;28;20048;-59
2023/04/22 05:52:34;;;;;;;1.52;1.20;;;;;;;6.34;54.87;99673.78;4943500;28;20142;-59
2023/04/22 05:55:08;;;;;;;3.55;1.20;;;;;;;6.37;55.11;99683.25;4943465;28;20058;-58
2023/04/22 05:57:40;;;;;;;2.25;1.02;;;;;;;6.42;55.01;99682.34;4934648;28;20468;-60
2023/04/22 06:00:12;;;;;;;3.72;1.20;;;;;;;6.33;55.54;99661.66;4943132;28;20055;-60
2023/04/22 06:02:42;;;;;;;4.32;1.33;;;;;;;6.27;54.10;99698.03;4929285;28;20059;-60
2023/04/22 06:05:13;;;;;;;2.65;0.90;;;;;;;6.28;55.06;99698.91;4939309;28;20671;-59
2023/04/22 06:07:44;;;;;;;2.20;0.93;;;;;;;6.37;54.22;99699.69;4942606;28;20554;-60
2023/04/22 06:10:15;;;;;;;3.63;1.00;;;;;;;6.51;55.13;99685.72;4927050;28;20052;-60
2023/04/22 06:12:50;;;;;;;2.47;1.10;;;;;;;6.50;53.92;99668.44;4929168;28;20067;-60
2023/04/22 06:15:21;;;;;;;2.60;1.30;;;;;;;6.56;53.56;99702.13;4942125;28;20083;-59
2023/04/22 06:17:52;;;;;;;3.72;1.30;;;;;;;6.51;54.02;99690.91;4922633;28;20769;-60
2023/04/22 06:20:22;;;;;;;4.47;1.30;;;;;;;6.66;54.16;99701.16;4937511;28;20089;-60
2023/04/22 06:22:53;;;;;;;4.95;1.27;;;;;;;6.70;54.33;99708.03;4922529;28;20041;-59
2023/04/22 06:25:24;;;;;;;2.80;1.13;;;;;;;6.64;54.72;99718.47;4908345;28;20498;-60
2023/04/22 06:27:56;;;;;;;3.70;1.08;;;;;;;6.59;55.12;99715.06;4910235;28;20056;-61
2023/04/22 06:30:27;;;;;;;3.22;1.38;;;;;;;6.17;56.35;99629.81;4913634;28;20216;-60
2023/04/22 06:32:58;;;;;;;3.60;1.48;;;;;;;6.75;55.13;99711.47;4907568;28;20045;-60
2023/04/22 06:35:29;;;;;;;5.93;1.25;;;;;;;6.74;55.27;99725.31;4916723;28;20511;-59
2023/04/22 06:37:59;;;;;;;3.17;1.10;;;;;;;6.54;54.06;99703.84;4915084;28;20063;-60
2023/04/22 06:40:30;;;;;;;2.85;0.95;;;;;;;6.61;52.37;99739.28;4913427;28;20061;-61
2023/04/22 06:43:02;;;;;;;1.08;0.80;;;;;;;6.56;52.58;99731.53;4912523;28;20051;-59
2023/04/22 06:45:33;;;;;;;2.88;1.10;;;;;;;6.47;51.75;99748.03;4915891;28;20063;-60
2023/04/22 06:48:03;;;;;;;2.28;1.02;;;;;;;6.50;52.13;99751.50;4915433;28;20052;-60
2023/04/22 06:50:34;;;;;;;4.22;1.08;;;;;;;6.55;53.19;99757.50;4913951;28;20071;-60
2023/04/22 06:53:05;;;;;;;3.67;1.02;;;;;;;6.54;52.23;99747.97;4913608;28;20489;-60
2023/04/22 06:55:36;;;;;;;3.50;1.30;;;;;;;6.45;51.27;99744.59;4905533;28;20044;-59
2023/04/22 06:58:08;;;;;;;2.10;1.13;;;;;;;6.49;51.64;99758.44;4915015;28;20063;-57
2023/04/22 07:00:38;;;;;;;2.05;1.02;;;;;;;6.48;50.58;99749.75;4905626;28;20078;-59
2023/04/22 07:03:09;;;;;;;2.25;1.02;;;;;;;6.52;51.50;99749.75;4913925;28;20062;-58
2023/04/22 07:05:40;;;;;;;2.50;1.00;;;;;;;6.36;51.60;99734.28;4915646;28;20364;-58
2023/04/22 07:08:11;;;;;;;2.80;1.00;;;;;;;6.37;52.26;99741.22;4925421;28;20552;-58
2023/04/22 07:10:42;;;;;;;2.03;1.10;;;;;;;6.42;52.82;99741.19;4912820;28;20059;-59
2023/04/22 07:13:14;;;;;;;3.72;1.50;;;;;;;6.46;52.86;99751.53;4915002;28;20052;-58
2023/04/22 07:15:47;;;;;;;2.35;1.00;;;;;;;6.46;51.99;99741.16;4914627;28;20430;-59
2023/04/22 07:18:17;;;;;;;2.80;1.30;;;;;;;6.51;52.71;99748.00;4895427;28;20072;-60
2023/04/22 07:20:48;;;;;;;4.65;1.50;;;;;;;6.54;53.09;99742.78;4919089;28;20084;-59
2023/04/22 07:23:18;;;;;;;2.40;1.13;;;;;;;6.53;53.70;99741.09;4934960;28;20052;-59
2023/04/22 07:25:49;;;;;;;4.13;1.20;;;;;;;6.54;53.69;99753.16;4936520;28;20490;-60
2023/04/22 07:28:21;;;;;;;3.58;1.10;;;;;;;6.42;53.61;99729.06;4933254;28;20040;-58
2023/04/22 07:30:52;;;;;;;3.33;2.03;;;;;;;6.50;53.66;99761.88;4932044;28;20056;-59
2023/04/22 07:33:23;;;;;;;6.20;1.60;;;;;;;6.48;52.76;99760.13;4937575;28;20099;-59
2023/04/22 07:35:54;;;;;;;3.50;1.23;;;;;;;6.39;53.37;99755.03;4931907;28;20047;-59
2023/04/22 07:38:25;;;;;;;2.50;1.23;;;;;;;6.39;52.57;99760.22;4932321;28;20618;-60
2023/04/22 07:40:55;;;;;;;2.70;1.08;;;;;;;6.40;52.71;99767.13;4934735;28;20669;-60
2023/04/22 07:43:27;;;;;;;3.50;1.13;;;;;;;6.41;53.13;99774.03;4938249;28;20404;-60
2023/04/22 07:45:58;;;;;;;3.15;1.10;;;;;;;5.97;51.52;99712.94;4932992;28;22260;-60
2023/04/22 07:48:29;;;;;;;4.32;1.30;;;;;;;6.24;52.34;99778.47;4939965;28;20522;-59
2023/04/22 07:50:59;;;;;;;2.20;1.10;;;;;;;6.08;52.18;99763.88;4937663;28;20055;-59
2023/04/22 07:53:30;;;;;;;3.65;1.30;;;;;;;5.99;52.63;99781.25;4938341;28;20070;-59
2023/04/22 07:56:02;;;;;;;2.95;1.20;;;;;;;5.96;52.89;99781.22;4938145;28;20059;-59
2023/04/22 07:58:34;;;;;;;2.45;1.00;;;;;;;5.94;53.41;99783.00;4937933;28;20059;-58
2023/04/22 08:01:05;;;;;;;2.67;1.02;;;;;;;5.84;53.53;99782.16;4937490;28;20059;-59
2023/04/22 08:03:39;;;;;;;2.47;1.17;;;;;;;5.81;53.68;99782.13;4937971;28;20345;-59
2023/04/22 08:06:10;;;;;;;3.65;1.20;;;;;;;5.73;54.12;99785.66;4926121;28;20063;-58
2023/04/22 08:08:41;;;;;;;4.47;1.20;;;;;;;5.65;53.75;99790.88;4935053;28;20048;-57
2023/04/22 08:11:12;;;;;;;1.52;1.10;;;;;;;5.35;54.50;99745.19;4935450;27;20543;-59
2023/04/22 08:13:44;;;;;;;2.53;1.40;;;;;;;5.56;54.33;99791.75;4937991;28;20082;-59
2023/04/22 08:16:14;;;;;;;3.35;1.30;;;;;;;5.50;53.86;99796.09;4937452;28;20262;-59
2023/04/22 08:18:45;;;;;;;2.22;1.10;;;;;;;5.47;54.41;99794.38;4916615;28;20062;-58
2023/04/22 08:21:15;;;;;;;5.20;1.52;;;;;;;5.42;54.03;99793.53;4919279;28;20416;-58
2023/04/22 08:23:46;;;;;;;2.95;1.25;;;;;;;5.35;54.96;99787.50;4943218;28;20051;-59
2023/04/22 08:26:17;;;;;;;3.70;1.30;;;;;;;5.36;54.81;99794.41;4945026;28;20059;-58
2023/04/22 08:28:51;;;;;;;5.32;1.30;;;;;;;5.43;55.17;99794.41;4942439;28;20079;-58
2023/04/22 08:31:22;;;;;;;3.75;1.40;;;;;;;5.44;55.25;99794.38;4944865;28;20051;-60
2023/04/22 08:33:53;;;;;;;4.35;1.38;;;;;;;5.47;55.54;99789.22;4945004;28;20536;-59
2023/04/22 08:36:26;;;;;;;2.90;1.20;;;;;;;5.32;55.11;99768.53;4965479;28;20043;-60
2023/04/22 08:38:57;;;;;;;4.47;1.40;;;;;;;5.47;54.62;99796.97;4944940;28;20951;-59
2023/04/22 08:41:34;;;;;;;1.85;1.13;;;;;;;5.37;54.12;99795.28;4943577;28;20045;-59
2023/04/22 08:44:06;;;;;;;2.75;1.20;;;;;;;5.26;54.89;99791.84;4917247;28;20063;-58
2023/04/22 08:46:38;;;;;;;2.25;1.33;;;;;;;5.10;54.95;99806.56;4939292;28;20739;-58
2023/04/22 08:49:10;;;;;;;4.60;1.50;;;;;;;5.21;55.40;99816.91;4934062;28;20044;-58
2023/04/22 08:51:41;;;;;;;3.63;1.38;;;;;;;5.15;55.44;99829.00;4930943;28;20055;-59
2023/04/22 08:54:12;;;;;;;4.03;1.42;;;;;;;5.04;55.95;99822.97;4931136;28;20051;-59
2023/04/22 08:56:45;;;;;;;3.97;1.33;;;;;;;5.06;56.12;99829.00;4945046;28;20047;-58
2023/04/22 08:59:20;;;;;;;5.43;1.50;;;;;;;5.02;56.63;99845.41;4941626;28;20406;-58
2023/04/22 09:01:53;;;;;;;4.25;1.40;;;;;;;4.90;57.15;99835.06;4911590;28;20119;-59
2023/04/22 09:04:25;;;;;;;2.83;1.17;;;;;;;4.74;57.42;99845.41;4928453;28;20387;-59
2023/04/22 09:06:56;;;;;;;6.88;2.08;;;;;;;4.63;57.93;99846.25;4929274;28;20058;-58
2023/04/22 09:09:31;;;;;;;4.10;1.42;;;;;;;4.28;58.60;99813.44;4928435;28;20151;-59
2023/04/22 09:12:02;;;;;;;4.10;1.73;;;;;;;4.40;58.70;99848.81;4933146;28;20087;-59
2023/04/22 09:14:35;;;;;;;6.78;1.83;;;;;;;4.18;59.18;99843.59;4944300;28;20292;-58
2023/04/22 09:17:05;;;;;;;4.97;1.58;;;;;;;3.92;59.63;99821.94;4929686;28;20052;-59
2023/04/22 09:19:36;;;;;;;7.38;1.73;;;;;;;4.01;59.78;99850.44;4944596;28;20069;-59
2023/04/22 09:22:15;;;;;;;4.50;1.83;;;;;;;3.94;60.27;99864.19;4924551;28;20041;-59
2023/04/22 09:24:51;;;;;;;6.35;1.80;;;;;;;3.44;60.84;99791.63;4929868;28;20472;-59
2023/04/22 09:27:34;;;;;;;4.00;1.65;;;;;;;3.77;61.29;99867.56;4920228;28;20060;-59
2023/04/22 09:30:19;;;;;;;4.88;1.67;;;;;;;3.68;61.56;99875.25;4929540;28;20052;-59
2023/04/22 09:32:57;;;;;;;4.70;1.80;;;;;;;3.57;62.09;99870.06;4929579;28;20142;-59
2023/04/22 09:35:34;;;;;;;5.10;1.60;;;;;;;3.57;62.18;99879.50;4924905;28;20188;-58
2023/04/22 09:38:06;;;;;;;5.03;1.67;;;;;;;3.42;62.52;99881.16;4929519;28;20059;-59
2023/04/22 09:40:38;;;;;;;5.18;1.65;;;;;;;3.45;62.81;99891.50;4944242;28;20128;-59
2023/04/22 09:43:10;;;;;;;3.75;2.05;;;;;;;3.43;63.20;99898.38;4920355;28;20587;-59
2023/04/22 09:45:43;;;;;;;4.78;1.90;;;;;;;3.44;63.47;99905.28;4930012;28;20058;-59
2023/04/22 09:48:16;;;;;;;6.35;2.65;;;;;;;3.39;63.14;99899.19;4941771;28;20051;-59
2023/04/22 09:50:48;;;;;;;6.32;2.20;;;;;;;3.42;63.42;99912.16;4943112;28;20083;-59
2023/04/22 09:53:21;;;;;;;6.88;1.90;;;;;;;3.41;63.37;99915.56;4929567;28;20517;-59
2023/04/22 09:55:55;;;;;;;4.47;1.70;;;;;;;3.42;63.54;99927.66;4928825;28;20388;-59
2023/04/22 09:58:26;;;;;;;6.78;2.05;;;;;;;3.40;63.78;99903.50;4928434;28;20585;-59
2023/04/22 10:01:02;;;;;;;4.07;1.92;;;;;;;3.17;63.88;99871.47;4928567;28;20063;-59
2023/04/22 10:03:33;;;;;;;7.38;1.92;;;;;;;3.21;63.58;99876.69;4917484;28;20317;-58
2023/04/22 10:06:10;;;;;;;3.60;1.70;;;;;;;3.40;63.66;99903.50;4928525;28;20044;-59
2023/04/22 10:08:44;;;;;;;4.72;1.60;;;;;;;3.42;64.11;99906.09;4916278;28;20051;-59
2023/04/22 10:11:16;;;;;;;3.25;1.50;;;;;;;3.46;64.21;99913.03;4943528;28;20055;-59
2023/04/22 10:13:46;;;;;;;2.53;1.50;;;;;;;3.48;64.38;99916.47;4942184;28;20390;-59
2023/04/22 10:16:30;;;;;;;6.22;1.70;;;;;;;3.43;63.79;99913.88;4940841;28;20051;-58
2023/04/22 10:19:08;;;;;;;;;;;;;;;3.40;64.23;99924.19;4930274;28;20062;-59
2023/04/22 10:21:42;;;;;;;6.85;1.70;;;;;;;3.34;64.21;99918.94;4936504;28;19929;-58
2023/04/22 10:24:20;;;;;;;3.95;1.90;;;;;;;3.20;64.18;99905.09;4938726;28;20071;-58
2023/04/22 10:26:57;;;;;;;6.63;2.00;;;;;;;3.28;64.17;99913.75;4927340;28;20050;-58
2023/04/22 10:29:37;;;;;;;3.55;1.60;;;;;;;3.27;63.77;99927.53;4931213;28;20068;-58
2023/04/22 10:32:29;;;;;;;4.07;1.88;;;;;;;3.34;63.70;99934.44;4931543;28;20053;-58
2023/04/22 10:35:15;;;;;;;3.35;1.58;;;;;;;3.28;63.21;99929.25;4926008;28;20399;-58
2023/04/22 10:37:50;;;;;;;2.33;1.65;;;;;;;3.08;63.44;99894.66;4881620;28;20599;-58
2023/04/22 10:40:34;;;;;;;5.35;1.55;;;;;;;3.31;63.27;99925.81;4936386;28;20053;-58
2023/04/22 10:43:08;;;;;;;3.58;1.80;;;;;;;3.33;63.22;99932.72;4929612;28;20073;-58
2023/04/22 10:45:39;;;;;;;2.78;1.75;;;;;;;3.31;63.37;99931.00;4937383;28;20056;-58
2023/04/22 10:48:11;;;;;;;2.60;1.60;;;;;;;3.26;63.37;99930.94;4935933;28;20063;-58
2023/04/22 10:50:42;;;;;;;4.75;1.58;;;;;;;3.25;63.51;99939.56;4938847;28;20055;-59
2023/04/22 10:53:37;;;;;;;4.22;1.60;;;;;;;3.18;64.11;99933.47;4937426;28;20052;-59
2023/04/22 10:56:18;;;;;;;6.20;1.58;;;;;;;3.17;64.33;99936.03;4923649;28;20048;-58
2023/04/22 10:58:50;;;;;;;3.63;1.58;;;;;;;3.16;64.23;99939.47;4922627;28;20107;-58
2023/04/22 11:01:25;;;;;;;4.35;1.50;;;;;;;3.16;64.19;99944.63;4937745;28;20078;-58
2023/04/22 11:04:24;;;;;;;7.32;1.60;;;;;;;3.13;64.73;99945.47;4936827;28;20040;-58
2023/04/22 11:07:15;;;;;;;4.47;1.60;;;;;;;3.14;64.68;99943.75;4924133;28;20054;-59
2023/04/22 11:09:52;;;;;;;4.93;1.55;;;;;;;3.14;65.03;99933.44;4921698;28;20052;-59
2023/04/22 11:12:45;;;;;;;2.15;1.20;;;;;;;3.10;65.30;99940.28;4937165;28;20112;-59
2023/04/22 11:15:24;;;;;;;3.65;1.50;;;;;;;3.12;65.32;99941.19;4924286;28;20055;-59
2023/04/22 11:17:59;;;;;;;4.10;1.52;;;;;;;3.12;65.08;99942.88;4930553;28;20059;-59
2023/04/22 11:20:36;;;;;;;2.95;1.25;;;;;;;3.08;65.29;99942.00;4942441;28;20372;-59
2023/04/22 11:23:06;;;;;;;1.83;1.30;;;;;;;3.08;65.37;99951.47;4940844;28;20167;-59
2023/04/22 11:25:40;;;;;;;4.20;1.48;;;;;;;2.94;65.41;99928.09;4939696;28;21794;-59
2023/04/22 11:28:13;;;;;;;3.00;1.65;;;;;;;3.08;65.63;99946.31;4932527;28;20424;-59
2023/04/22 11:30:46;;;;;;;3.08;1.48;;;;;;;3.12;65.84;99937.72;4940288;28;20587;-59
2023/04/22 11:33:16;;;;;;;3.67;1.40;;;;;;;3.13;65.92;99949.78;4940167;28;20083;-59
2023/04/22 11:35:51;;;;;;;1.77;1.40;;;;;;;3.12;65.58;99954.09;4941286;28;20092;-60
2023/04/22 11:38:23;;;;;;;1.85;1.30;;;;;;;3.12;65.89;99955.78;4931470;28;20508;-59
2023/04/22 11:40:59;;;;;;;1.42;1.20;;;;;;;2.88;65.91;99908.25;4938964;27;20482;-59
2023/04/22 11:43:35;;;;;;;2.80;1.33;;;;;;;3.12;65.80;99950.63;4939640;28;20055;-58
2023/04/22 11:46:06;;;;;;;2.35;1.30;;;;;;;3.20;66.01;99946.41;4936105;28;20105;-60
2023/04/22 11:48:37;;;;;;;1.83;1.50;;;;;;;3.28;66.29;99949.03;4941275;28;21434;-59
2023/04/22 11:51:13;;;;;;;2.85;1.40;;;;;;;3.26;65.67;99956.78;4936781;28;20438;-60
2023/04/22 11:53:51;;;;;;;3.28;1.40;;;;;;;3.29;66.13;99956.78;4938635;28;20550;-60
2023/04/22 11:56:23;;;;;;;1.77;1.30;;;;;;;3.30;66.51;99958.53;4931698;27;20055;-59
2023/04/22 11:58:53;;;;;;;3.08;1.50;;;;;;;3.26;66.05;99951.59;4940174;28;20430;-59
2023/04/22 12:01:24;;;;;;;5.20;1.60;;;;;;;3.20;65.59;99943.81;4939780;28;20057;-60
2023/04/22 12:04:01;;;;;;;2.90;1.67;;;;;;;3.01;65.81;99923.00;4939587;28;20039;-59
2023/04/22 12:06:34;;;;;;;2.05;1.45;;;;;;;3.19;65.86;99944.66;4930966;28;20531;-59